createdAt,value
2023-08-24T00:00:09.055Z,35.18
2023-08-24T00:02:43.082Z,41.09
2023-08-24T00:05:16.384Z,38.13
2023-08-24T00:07:50.524Z,33.76
2023-08-24T00:10:23.853Z,32.92
2023-08-24T00:12:57.001Z,32.83
2023-08-24T00:15:31.932Z,33.48
2023-08-24T00:18:06.131Z,31.70
2023-08-24T00:20:39.393Z,32.00
2023-08-24T00:23:12.724Z,31.54
2023-08-24T00:25:45.965Z,30.77
2023-08-24T00:28:19.125Z,28.75
2023-08-24T00:30:53.667Z,30.38
2023-08-24T00:33:26.904Z,33.20
2023-08-24T00:36:02.763Z,32.48
2023-08-24T00:38:36.060Z,32.32
2023-08-24T00:41:09.290Z,35.10
2023-08-24T00:43:42.501Z,35.15
2023-08-24T00:46:17.091Z,33.43
2023-08-24T00:48:50.733Z,34.20
2023-08-24T00:51:23.968Z,34.78
2023-08-24T00:53:59.566Z,34.32
2023-08-24T00:56:33.273Z,31.82
2023-08-24T00:59:06.967Z,32.51
2023-08-24T01:01:45.365Z,33.87
2023-08-24T01:04:20.418Z,32.17
2023-08-24T01:06:53.612Z,33.09
2023-08-24T01:09:27.083Z,34.81
2023-08-24T01:12:07.295Z,33.08
2023-08-24T01:14:51.522Z,35.36
2023-08-24T01:17:30.752Z,36.12
2023-08-24T01:20:06.969Z,36.65
2023-08-24T01:22:49.646Z,38.55
2023-08-24T01:25:35.600Z,35.23
2023-08-24T01:28:12.662Z,32.18
2023-08-24T01:30:46.798Z,33.57
2023-08-24T01:33:20.094Z,33.81
2023-08-24T01:35:53.390Z,35.10
2023-08-24T01:38:26.954Z,32.46
2023-08-24T01:41:13.596Z,34.53
2023-08-24T01:43:54.740Z,34.76
2023-08-24T01:46:30.248Z,33.31
2023-08-24T01:49:07.909Z,33.32
2023-08-24T01:51:44.345Z,33.68
2023-08-24T01:54:17.463Z,32.24
2023-08-24T01:56:50.688Z,34.40
2023-08-24T01:59:25.329Z,33.13
2023-08-24T02:01:58.556Z,34.03
2023-08-24T02:04:31.793Z,34.75
2023-08-24T02:07:05.013Z,34.69
2023-08-24T02:09:38.156Z,36.89
2023-08-24T02:12:11.369Z,36.09
2023-08-24T02:14:45.949Z,36.76
2023-08-24T02:17:19.480Z,36.69
2023-08-24T02:19:52.639Z,41.10
2023-08-24T02:22:25.848Z,34.65
2023-08-24T02:24:59.095Z,32.87
2023-08-24T02:27:32.257Z,37.66
2023-08-24T02:30:08.288Z,33.35
2023-08-24T02:32:44.768Z,34.76
2023-08-24T02:35:18.551Z,32.54
2023-08-24T02:37:58.134Z,30.14
2023-08-24T02:40:31.422Z,33.24
2023-08-24T02:43:05.670Z,30.35
2023-08-24T02:45:40.302Z,31.95
2023-08-24T02:48:13.492Z,33.71
2023-08-24T02:50:48.707Z,31.55
2023-08-24T02:53:21.864Z,30.21
2023-08-24T02:55:55.065Z,30.37
2023-08-24T02:58:28.718Z,30.49
2023-08-24T03:01:07.578Z,34.01
2023-08-24T03:03:40.855Z,35.06
2023-08-24T03:06:13.991Z,33.01
2023-08-24T03:08:47.164Z,33.99
2023-08-24T03:11:20.432Z,35.79
2023-08-24T03:13:53.552Z,33.60
2023-08-24T03:16:28.903Z,34.46
2023-08-24T03:19:02.185Z,36.92
2023-08-24T03:21:35.422Z,36.47
2023-08-24T03:24:12.201Z,35.94
2023-08-24T03:26:46.476Z,34.31
2023-08-24T03:29:19.714Z,34.90
2023-08-24T03:31:54.665Z,34.04
2023-08-24T03:34:28.461Z,33.68
2023-08-24T03:37:01.756Z,31.22
2023-08-24T03:39:34.965Z,35.26
2023-08-24T03:42:08.741Z,34.46
2023-08-24T03:44:41.914Z,33.65
2023-08-24T03:47:16.454Z,31.52
2023-08-24T03:49:49.719Z,34.48
2023-08-24T03:52:23.255Z,36.61
2023-08-24T03:54:58.845Z,37.03
2023-08-24T03:57:32.936Z,36.63
2023-08-24T04:00:08.819Z,36.69
2023-08-24T04:02:48.407Z,38.93
2023-08-24T04:05:30.021Z,40.31
2023-08-24T04:08:03.520Z,39.20
2023-08-24T04:10:36.694Z,40.52
2023-08-24T04:13:12.379Z,42.70
2023-08-24T04:15:45.576Z,49.22
2023-08-24T04:18:20.171Z,47.81
2023-08-24T04:20:54.612Z,45.06
2023-08-24T04:23:28.321Z,43.04
2023-08-24T04:26:01.529Z,42.38
2023-08-24T04:28:34.746Z,44.46
2023-08-24T04:31:08.236Z,43.46
2023-08-24T04:33:42.883Z,43.57
2023-08-24T04:36:16.436Z,45.29
2023-08-24T04:38:50.108Z,44.79
2023-08-24T04:41:23.365Z,43.81
2023-08-24T04:43:58.935Z,46.36
2023-08-24T04:46:32.182Z,42.68
2023-08-24T04:49:06.846Z,44.26
2023-08-24T04:51:40.060Z,44.12
2023-08-24T04:54:13.209Z,46.18
2023-08-24T04:56:46.416Z,44.67
2023-08-24T04:59:19.630Z,47.03
2023-08-24T05:01:52.864Z,44.30
2023-08-24T05:04:27.509Z,48.81
2023-08-24T05:07:01.333Z,46.06
2023-08-24T05:09:34.741Z,44.07
2023-08-24T05:12:08.851Z,43.97
2023-08-24T05:14:42.842Z,43.35
2023-08-24T05:17:16.022Z,45.41
2023-08-24T05:19:53.279Z,46.13
2023-08-24T05:22:26.502Z,45.69
2023-08-24T05:24:59.711Z,45.14
2023-08-24T05:27:33.707Z,49.34
2023-08-24T05:30:08.048Z,51.07
2023-08-24T05:32:41.525Z,49.23
2023-08-24T05:35:17.252Z,48.50
2023-08-24T05:37:50.740Z,48.33
2023-08-24T05:40:24.126Z,47.76
2023-08-24T05:42:57.267Z,46.67
2023-08-24T05:45:30.405Z,45.22
2023-08-24T05:48:04.458Z,46.15
2023-08-24T05:50:44.250Z,45.05
2023-08-24T05:53:17.424Z,44.35
2023-08-24T05:55:50.520Z,43.10
2023-08-24T05:58:23.688Z,41.85
2023-08-24T06:01:00.352Z,44.58
2023-08-24T06:03:33.661Z,46.02
2023-08-24T06:06:11.129Z,46.91
2023-08-24T06:08:44.617Z,44.91
2023-08-24T06:11:17.711Z,46.76
2023-08-24T06:13:50.862Z,45.08
2023-08-24T06:16:26.310Z,46.43
2023-08-24T06:18:59.473Z,49.36
2023-08-24T06:21:34.031Z,45.63
2023-08-24T06:24:07.430Z,44.64
2023-08-24T06:26:40.612Z,47.52
2023-08-24T06:29:13.994Z,44.56
2023-08-24T06:31:47.166Z,46.24
2023-08-24T06:34:20.423Z,42.01
2023-08-24T06:36:55.811Z,41.82
2023-08-24T06:39:28.984Z,42.91
2023-08-24T06:42:03.590Z,42.37
2023-08-24T06:44:37.883Z,43.37
2023-08-24T06:47:11.082Z,41.21
2023-08-24T06:49:44.393Z,40.43
2023-08-24T06:52:18.977Z,42.63
2023-08-24T06:54:54.788Z,42.34
2023-08-24T06:57:28.105Z,42.69
2023-08-24T07:00:01.396Z,38.55
2023-08-24T07:02:34.878Z,39.55
2023-08-24T07:05:09.943Z,41.54
2023-08-24T07:07:45.529Z,39.02
2023-08-24T07:10:18.982Z,40.93
2023-08-24T07:12:52.173Z,43.86
2023-08-24T07:15:25.591Z,39.52
2023-08-24T07:17:58.806Z,37.53
2023-08-24T07:20:31.958Z,38.15
2023-08-24T07:23:06.641Z,36.66
2023-08-24T07:25:39.766Z,34.95
2023-08-24T07:28:12.974Z,34.84
2023-08-24T07:30:46.329Z,36.34
2023-08-24T07:33:21.328Z,33.88
2023-08-24T07:35:54.485Z,32.17
2023-08-24T07:38:29.029Z,29.73
2023-08-24T07:41:02.400Z,26.69
2023-08-24T07:43:35.817Z,27.29
2023-08-24T07:46:09.306Z,26.76
2023-08-24T07:48:42.600Z,28.10
2023-08-24T07:51:15.827Z,29.48
2023-08-24T07:53:51.878Z,26.99
2023-08-24T07:56:25.154Z,26.20
2023-08-24T07:58:58.378Z,25.97
2023-08-24T08:01:31.824Z,26.52
2023-08-24T08:04:05.409Z,26.51
2023-08-24T08:06:38.659Z,24.99
2023-08-24T08:09:14.028Z,25.08
2023-08-24T08:11:47.811Z,26.83
2023-08-24T08:14:21.229Z,24.94
2023-08-24T08:16:54.442Z,24.58
2023-08-24T08:19:29.169Z,24.13
2023-08-24T08:22:02.337Z,23.20
2023-08-24T08:24:36.964Z,24.82
2023-08-24T08:27:10.399Z,24.17
2023-08-24T08:29:43.908Z,22.55
2023-08-24T08:32:17.069Z,22.53
2023-08-24T08:34:50.243Z,21.03
2023-08-24T08:37:23.458Z,23.07
2023-08-24T08:39:58.152Z,20.39
2023-08-24T08:42:32.314Z,21.95
2023-08-24T08:45:11.406Z,23.36
2023-08-24T08:47:44.685Z,22.73
2023-08-24T08:50:18.281Z,23.21
2023-08-24T08:52:51.428Z,22.17
2023-08-24T08:55:25.994Z,24.38
2023-08-24T08:58:02.724Z,22.85
2023-08-24T09:00:37.420Z,21.46
2023-08-24T09:03:11.535Z,22.23
2023-08-24T09:05:47.810Z,22.71
2023-08-24T09:08:21.316Z,23.96
2023-08-24T09:10:56.222Z,22.06
2023-08-24T09:13:33.622Z,22.38
2023-08-24T09:16:08.834Z,22.94
2023-08-24T09:18:45.300Z,19.09
2023-08-24T09:21:18.577Z,23.43
2023-08-24T09:23:55.879Z,23.08
2023-08-24T09:26:35.770Z,23.79
2023-08-24T09:29:14.431Z,24.56
2023-08-24T09:31:47.652Z,22.82
2023-08-24T09:34:22.521Z,21.71
2023-08-24T09:36:55.727Z,22.67
2023-08-24T09:39:28.900Z,22.64
2023-08-24T09:42:05.813Z,21.89
2023-08-24T09:44:38.956Z,23.28
2023-08-24T09:47:13.098Z,22.38
2023-08-24T09:49:47.976Z,22.35
2023-08-24T09:52:22.490Z,21.58
2023-08-24T09:54:56.643Z,21.15
2023-08-24T09:57:31.281Z,22.00
2023-08-24T10:00:11.005Z,23.21
2023-08-24T10:02:52.717Z,24.65
2023-08-24T10:08:03.951Z,22.57
2023-08-24T10:10:40.630Z,23.89
2023-08-24T10:13:23.054Z,21.24
2023-08-24T10:15:58.635Z,22.60
2023-08-24T10:18:34.597Z,22.32
2023-08-24T10:21:09.375Z,23.96
2023-08-24T10:23:45.666Z,23.63
2023-08-24T10:26:19.865Z,24.20
2023-08-24T10:28:55.554Z,23.25
2023-08-24T10:31:30.337Z,21.07
2023-08-24T10:34:05.058Z,21.59
2023-08-24T10:36:41.412Z,24.37
2023-08-24T10:39:14.917Z,24.80
2023-08-24T10:41:49.689Z,23.25
2023-08-24T10:44:26.430Z,24.78
2023-08-24T10:47:15.830Z,22.35
2023-08-24T10:50:02.193Z,24.35
2023-08-24T10:52:40.340Z,24.53
2023-08-24T10:55:28.096Z,25.47
2023-08-24T10:58:02.212Z,27.16
2023-08-24T11:00:36.819Z,27.30
2023-08-24T11:03:11.153Z,27.15
2023-08-24T11:05:45.039Z,27.03
2023-08-24T11:08:18.255Z,29.46
2023-08-24T11:10:51.816Z,28.51
2023-08-24T11:13:26.101Z,29.53
2023-08-24T11:16:05.840Z,29.95
2023-08-24T11:18:42.278Z,32.25
2023-08-24T11:21:16.204Z,36.14
2023-08-24T11:23:50.781Z,39.16
2023-08-24T11:26:24.034Z,38.45
2023-08-24T11:28:58.906Z,38.12
2023-08-24T11:31:34.819Z,41.85
2023-08-24T11:34:09.751Z,42.71
2023-08-24T11:36:48.379Z,44.91
2023-08-24T11:39:23.872Z,46.54
2023-08-24T11:42:01.687Z,46.40
2023-08-24T11:44:47.871Z,48.17
2023-08-24T11:47:24.844Z,50.59
2023-08-24T11:49:59.919Z,47.78
2023-08-24T11:52:37.180Z,48.91
2023-08-24T11:55:10.954Z,48.01
2023-08-24T11:57:44.750Z,49.73
2023-08-24T12:00:19.088Z,47.46
2023-08-24T12:02:54.142Z,49.90
2023-08-24T12:05:29.424Z,46.29
2023-08-24T12:08:02.698Z,53.16
2023-08-24T12:10:36.851Z,46.01
2023-08-24T12:13:12.887Z,46.45
2023-08-24T12:15:48.407Z,45.79
2023-08-24T12:18:23.046Z,46.77
2023-08-24T12:20:56.304Z,44.67
2023-08-24T12:23:31.721Z,40.85
2023-08-24T12:26:06.591Z,39.62
2023-08-24T12:28:39.758Z,37.83
2023-08-24T12:31:16.745Z,37.81
2023-08-24T12:34:02.475Z,39.17
2023-08-24T12:36:38.039Z,34.84
2023-08-24T12:39:15.052Z,35.93
2023-08-24T12:41:48.213Z,32.68
2023-08-24T12:44:21.326Z,37.20
2023-08-24T12:46:54.536Z,35.37
2023-08-24T12:49:29.122Z,31.87
2023-08-24T12:52:02.293Z,34.80
2023-08-24T12:54:35.518Z,29.30
2023-08-24T12:57:09.397Z,30.32
2023-08-24T12:59:42.667Z,30.81
2023-08-24T13:02:25.211Z,33.64
2023-08-24T13:05:05.456Z,39.09
2023-08-24T13:07:40.133Z,39.40
2023-08-24T13:10:14.009Z,31.66
2023-08-24T13:12:47.088Z,36.83
2023-08-24T13:15:21.221Z,34.78
2023-08-24T13:17:54.643Z,35.38
2023-08-24T13:20:29.319Z,34.25
2023-08-24T13:23:02.442Z,34.88
2023-08-24T13:25:35.530Z,36.98
2023-08-24T13:28:08.733Z,36.95
2023-08-24T13:30:43.934Z,35.56
2023-08-24T13:33:20.743Z,33.00
2023-08-24T13:35:55.215Z,34.56
2023-08-24T13:38:28.315Z,32.10
2023-08-24T13:41:04.707Z,32.64
2023-08-24T13:43:37.773Z,27.50
2023-08-24T13:46:10.887Z,27.46
2023-08-24T13:48:44.022Z,28.91
2023-08-24T13:51:19.172Z,28.40
2023-08-24T13:53:52.322Z,28.63
2023-08-24T13:56:25.407Z,30.91
2023-08-24T13:58:58.551Z,30.64
2023-08-24T14:01:31.704Z,30.65
2023-08-24T14:04:05.502Z,30.65
2023-08-24T14:06:40.149Z,28.75
2023-08-24T14:09:13.269Z,29.40
2023-08-24T14:11:46.439Z,30.84
2023-08-24T14:14:21.889Z,30.21
2023-08-24T14:16:58.335Z,34.01
2023-08-24T14:19:31.506Z,30.52
2023-08-24T14:22:06.052Z,29.88
2023-08-24T14:24:39.118Z,27.30
2023-08-24T14:27:12.242Z,29.09
2023-08-24T14:29:45.307Z,26.18
2023-08-24T14:32:18.940Z,26.26
2023-08-24T14:34:52.061Z,22.74
2023-08-24T14:37:26.701Z,23.69
2023-08-24T14:39:59.863Z,22.77
2023-08-24T14:42:32.952Z,21.57
2023-08-24T14:45:07.042Z,20.79
2023-08-24T14:47:40.686Z,18.87
2023-08-24T14:50:14.121Z,18.28
2023-08-24T14:52:48.764Z,19.04
2023-08-24T14:55:21.857Z,16.78
2023-08-24T14:57:56.328Z,15.67
2023-08-24T15:00:29.558Z,16.50
2023-08-24T15:03:05.871Z,16.31
2023-08-24T15:05:45.143Z,16.15
2023-08-24T15:08:19.712Z,15.84
2023-08-24T15:10:52.873Z,16.56
2023-08-24T15:13:26.101Z,15.75
2023-08-24T15:16:00.693Z,15.11
2023-08-24T15:18:33.850Z,14.11
2023-08-24T15:21:06.926Z,13.32
2023-08-24T15:23:41.390Z,12.91
2023-08-24T15:26:14.550Z,13.04
2023-08-24T15:29:10.337Z,13.27
2023-08-24T15:31:43.857Z,12.16
2023-08-24T15:34:17.037Z,10.96
2023-08-24T15:36:50.170Z,10.73
2023-08-24T15:39:25.127Z,11.81
2023-08-24T15:41:58.296Z,12.58
2023-08-24T15:44:31.468Z,11.03
2023-08-24T15:47:04.813Z,10.86
2023-08-24T15:49:38.719Z,10.72
2023-08-24T15:52:11.850Z,12.43
2023-08-24T15:54:46.412Z,11.55
2023-08-24T15:57:19.720Z,10.50
2023-08-24T15:59:52.943Z,10.41
2023-08-24T16:02:26.233Z,11.80
2023-08-24T16:04:59.475Z,13.37
2023-08-24T16:07:32.698Z,10.32
2023-08-24T16:10:08.258Z,10.95
2023-08-24T16:12:41.732Z,11.52
2023-08-24T16:15:18.116Z,11.96
2023-08-24T16:17:51.670Z,9.33
2023-08-24T16:20:25.103Z,11.37
2023-08-24T16:22:58.340Z,10.95
2023-08-24T16:25:33.392Z,10.95
2023-08-24T16:28:07.430Z,11.92
2023-08-24T16:30:42.995Z,10.21
2023-08-24T16:33:16.572Z,10.54
2023-08-24T16:35:50.143Z,10.41
2023-08-24T16:38:23.335Z,12.62
2023-08-24T16:40:58.305Z,13.58
2023-08-24T16:43:32.727Z,11.40
2023-08-24T16:46:05.907Z,11.44
2023-08-24T16:48:39.067Z,14.15
2023-08-24T16:51:12.232Z,11.76
2023-08-24T16:53:45.386Z,11.29
2023-08-24T16:56:19.937Z,10.76
2023-08-24T16:58:53.115Z,12.69
2023-08-24T17:01:26.442Z,12.44
2023-08-24T17:03:59.692Z,15.84
2023-08-24T17:06:35.394Z,14.42
2023-08-24T17:09:10.023Z,13.30
2023-08-24T17:11:44.596Z,14.75
2023-08-24T17:14:17.795Z,12.79
2023-08-24T17:16:51.396Z,22.30
2023-08-24T17:19:24.497Z,12.30
2023-08-24T17:21:57.555Z,10.71
2023-08-24T17:24:30.639Z,11.75
2023-08-24T17:27:05.228Z,30.66
2023-08-24T17:29:38.330Z,33.96
2023-08-24T17:32:11.413Z,19.39
2023-08-24T17:34:44.512Z,17.03
2023-08-24T17:37:17.632Z,18.46
2023-08-24T17:39:50.772Z,14.68
2023-08-24T17:42:25.221Z,15.77
2023-08-24T17:44:58.350Z,16.26
2023-08-24T17:47:31.478Z,15.10
2023-08-24T17:50:06.078Z,15.12
2023-08-24T17:52:39.165Z,14.18
2023-08-24T17:55:12.754Z,18.00
2023-08-24T17:57:47.282Z,16.25
2023-08-24T18:00:20.930Z,16.09
2023-08-24T18:02:54.126Z,15.72
2023-08-24T18:05:27.177Z,15.22
2023-08-24T18:08:00.538Z,14.60
2023-08-24T18:10:33.826Z,15.65
2023-08-24T18:13:08.437Z,11.71
2023-08-24T18:15:41.696Z,12.98
2023-08-24T18:18:14.861Z,14.96
2023-08-24T18:20:48.041Z,14.62
2023-08-24T18:23:21.136Z,17.88
2023-08-24T18:25:54.357Z,18.63
2023-08-24T18:28:28.848Z,19.23
2023-08-24T18:31:03.035Z,16.93
2023-08-24T18:33:36.306Z,18.61
2023-08-24T18:36:09.508Z,15.61
2023-08-24T18:38:42.709Z,15.18
2023-08-24T18:41:15.966Z,15.81
2023-08-24T18:43:50.462Z,16.95
2023-08-24T18:46:23.734Z,20.63
2023-08-24T18:48:56.910Z,20.01
2023-08-24T18:51:30.393Z,21.45
2023-08-24T18:54:03.624Z,19.90
2023-08-24T18:56:36.757Z,20.33
2023-08-24T18:59:11.334Z,19.66
2023-08-24T19:01:44.571Z,17.37
2023-08-24T19:04:17.789Z,22.43
2023-08-24T19:06:53.433Z,21.23
2023-08-24T19:09:26.589Z,22.03
2023-08-24T19:11:59.751Z,21.82
2023-08-24T19:14:36.614Z,21.84
2023-08-24T19:17:09.946Z,26.25
2023-08-24T19:19:43.065Z,42.96
2023-08-24T19:22:16.237Z,28.10
2023-08-24T19:24:49.422Z,28.12
2023-08-24T19:27:24.328Z,26.64
2023-08-24T19:29:59.369Z,26.46
2023-08-24T19:32:32.583Z,22.56
2023-08-24T19:35:06.413Z,23.80
2023-08-24T19:37:39.574Z,24.42
2023-08-24T19:40:13.513Z,23.87
2023-08-24T19:42:47.516Z,27.19
2023-08-24T19:45:22.075Z,25.70
2023-08-24T19:47:55.502Z,22.90
2023-08-24T19:50:29.693Z,23.96
2023-08-24T19:53:03.325Z,25.75
2023-08-24T19:55:36.433Z,24.79
2023-08-24T19:58:09.702Z,25.14
2023-08-24T20:00:44.251Z,24.58
2023-08-24T20:03:17.595Z,23.60
2023-08-24T20:05:55.603Z,24.21
2023-08-24T20:08:29.072Z,23.26
2023-08-24T20:11:02.737Z,23.22
2023-08-24T20:13:35.853Z,23.41
2023-08-24T20:16:10.391Z,24.62
2023-08-24T20:18:44.979Z,19.05
2023-08-24T20:21:18.233Z,20.88
2023-08-24T20:23:51.498Z,19.05
2023-08-24T20:26:25.039Z,22.96
2023-08-24T20:28:58.200Z,24.47
2023-08-24T20:31:35.299Z,26.73
2023-08-24T20:34:08.514Z,25.81
2023-08-24T20:36:41.716Z,27.07
2023-08-24T20:39:14.918Z,24.91
2023-08-24T20:41:48.396Z,27.75
2023-08-24T20:44:22.079Z,26.99
2023-08-24T20:46:56.624Z,27.86
2023-08-24T20:49:30.595Z,25.89
2023-08-24T20:52:04.579Z,26.52
2023-08-24T20:54:37.724Z,25.60
2023-08-24T20:57:10.929Z,25.88
2023-08-24T20:59:47.229Z,26.68
2023-08-24T21:02:21.737Z,28.20
2023-08-24T21:04:56.000Z,28.25
2023-08-24T21:07:30.095Z,29.43
2023-08-24T21:10:03.507Z,30.10
2023-08-24T21:12:36.634Z,30.04
2023-08-24T21:15:10.575Z,29.74
2023-08-24T21:17:45.189Z,27.80
2023-08-24T21:20:20.568Z,30.41
2023-08-24T21:22:53.799Z,28.01
2023-08-24T21:25:26.975Z,31.80
2023-08-24T21:28:00.104Z,35.91
2023-08-24T21:30:35.511Z,34.23
2023-08-24T21:33:10.098Z,30.11
2023-08-24T21:35:43.364Z,31.69
2023-08-24T21:38:16.462Z,32.19
2023-08-24T21:40:50.625Z,35.76
2023-08-24T21:43:24.035Z,30.65
2023-08-24T21:45:57.872Z,33.24
2023-08-24T21:48:32.458Z,32.43
2023-08-24T21:51:05.622Z,38.56
2023-08-24T21:53:38.944Z,37.57
2023-08-24T21:56:12.153Z,36.11
2023-08-24T21:58:45.318Z,34.74
2023-08-24T22:01:19.075Z,34.15
2023-08-24T22:03:53.663Z,32.55
2023-08-24T22:06:26.842Z,35.52
2023-08-24T22:08:59.949Z,33.04
2023-08-24T22:11:33.147Z,33.42
2023-08-24T22:14:06.336Z,37.29
2023-08-24T22:16:39.567Z,37.52
2023-08-24T22:19:24.881Z,35.45
2023-08-24T22:22:00.099Z,34.03
2023-08-24T22:24:33.268Z,34.23
2023-08-24T22:27:07.040Z,35.42
2023-08-24T22:29:40.192Z,36.27
2023-08-24T22:32:13.423Z,36.15
2023-08-24T22:34:47.922Z,36.51
2023-08-24T22:37:21.279Z,35.38
2023-08-24T22:39:55.351Z,35.45
2023-08-24T22:42:28.554Z,34.95
2023-08-24T22:45:01.659Z,35.53
2023-08-24T22:47:35.530Z,33.29
2023-08-24T22:50:12.129Z,34.14
2023-08-24T22:52:45.526Z,31.04
2023-08-24T22:55:18.721Z,31.32
2023-08-24T22:57:52.048Z,36.01
2023-08-24T23:00:25.504Z,32.12
2023-08-24T23:02:58.688Z,32.66
2023-08-24T23:05:33.521Z,32.48
2023-08-24T23:08:08.157Z,30.72
2023-08-24T23:10:41.381Z,30.56
2023-08-24T23:13:14.529Z,32.20
2023-08-24T23:15:47.752Z,34.04
2023-08-24T23:18:20.962Z,31.80
2023-08-24T23:20:55.506Z,28.92
2023-08-24T23:23:29.253Z,30.91
2023-08-24T23:26:02.403Z,30.54
2023-08-24T23:28:35.568Z,29.65
2023-08-24T23:31:08.798Z,28.89
2023-08-24T23:33:42.049Z,30.66
2023-08-24T23:36:16.740Z,26.07
2023-08-24T23:38:49.881Z,30.26
2023-08-24T23:41:22.986Z,30.08
2023-08-24T23:43:56.153Z,28.42
2023-08-24T23:46:29.637Z,33.40
2023-08-24T23:49:02.823Z,37.93
2023-08-24T23:51:37.319Z,36.29
2023-08-24T23:54:10.650Z,31.48
2023-08-24T23:56:43.848Z,27.01
2023-08-24T23:59:17.046Z,30.10
